Tokyo, Japan
Current Conditions -  °F | °C
As of 8:00 AM on Friday 28 Nov 2014 (Local Time) from RJTT Reporting Station
Broken Clouds Broken Clouds  
Wind Chill: 13°   Ceiling: 4500
Heat Index: 13°   Visibility: 6mi
Dew Point: 10°   Wind: 5mph
Humidity: 82%   Direction: 20°NNE
Pressure: 30.3"   Gusts: NA
Location:  35.67°N, 139.77°E
Report Text: RJTT 272300Z 02004KT 9999 FEW030 BKN045 13/10 Q1026 BECMG 12005KT
Loading
Personal Weather Stations






























Interactive Weather Map New forecast layout! Learn more

10-Day Weather Forecast

Advertisements
Track Severe Weather on mobile